createdAt,value
2023-02-04T00:06:28.660Z,122.60
2023-02-04T00:52:32.031Z,117.72
2023-02-04T00:59:39.976Z,115.45
2023-02-04T01:02:11.805Z,114.72
2023-02-04T01:05:16.146Z,105.72
2023-02-04T01:19:23.429Z,104.05
2023-02-04T02:04:05.860Z,108.85
2023-02-04T02:07:24.941Z,113.35
2023-02-04T02:20:53.597Z,114.28
2023-02-04T02:23:54.010Z,127.38
2023-02-04T02:26:37.752Z,127.53
2023-02-04T02:34:28.937Z,117.00
2023-02-04T02:41:10.633Z,118.13
2023-02-04T02:44:55.959Z,128.88
2023-02-04T02:47:53.005Z,115.22
2023-02-04T02:51:18.851Z,120.18
2023-02-04T02:53:58.554Z,115.28
2023-02-04T02:56:40.772Z,111.53
2023-02-04T03:47:32.568Z,112.55
2023-02-04T03:50:50.256Z,108.10
2023-02-04T04:12:23.577Z,125.10
2023-02-04T04:16:11.599Z,119.50
2023-02-04T04:18:47.411Z,114.68
2023-02-04T04:25:14.728Z,106.97
2023-02-04T04:49:33.729Z,108.18
2023-02-04T05:07:02.421Z,115.55
2023-02-04T05:29:59.919Z,123.18
2023-02-04T05:33:25.536Z,118.10
2023-02-04T07:00:11.221Z,114.95
2023-02-04T08:46:56.246Z,127.35
2023-02-04T08:55:43.323Z,131.15
2023-02-04T08:58:31.299Z,132.23
2023-02-04T09:01:14.949Z,142.95
2023-02-04T09:07:45.355Z,136.07
2023-02-04T09:11:01.601Z,141.18
2023-02-04T09:14:03.138Z,148.07
2023-02-04T09:19:41.861Z,147.80
2023-02-04T09:22:25.549Z,152.80
2023-02-04T09:25:25.332Z,148.43
2023-02-04T09:27:58.977Z,156.88
2023-02-04T09:30:43.439Z,161.82
2023-02-04T09:36:17.616Z,160.65
2023-02-04T09:39:27.017Z,159.50
2023-02-04T09:42:16.240Z,152.73
2023-02-04T09:44:45.538Z,152.90
2023-02-04T09:47:44.841Z,154.10
2023-02-04T09:50:46.172Z,162.77
2023-02-04T09:58:00.910Z,158.10
2023-02-04T10:04:15.594Z,161.38
2023-02-04T10:10:31.174Z,149.68
2023-02-04T10:13:19.787Z,150.25
2023-02-04T10:15:55.401Z,149.82
2023-02-04T10:18:38.317Z,140.65
2023-02-04T10:21:18.028Z,149.57
2023-02-04T10:23:58.681Z,148.27
2023-02-04T10:26:58.526Z,144.85
2023-02-04T10:29:31.025Z,145.27
2023-02-04T10:31:58.879Z,145.55
2023-02-04T10:34:47.334Z,153.40
2023-02-04T10:37:25.385Z,149.52
2023-02-04T10:40:01.583Z,144.32
2023-02-04T10:42:47.003Z,151.40
2023-02-04T10:45:34.978Z,151.40
2023-02-04T10:48:15.325Z,146.10
2023-02-04T10:50:58.399Z,160.45
2023-02-04T10:53:57.815Z,146.98
2023-02-04T10:56:46.126Z,154.38
2023-02-04T10:59:29.685Z,142.18
2023-02-04T11:02:59.434Z,148.23
2023-02-04T11:05:39.282Z,147.40
2023-02-04T11:08:41.089Z,144.75
2023-02-04T11:11:29.941Z,150.75
2023-02-04T11:14:11.784Z,148.23
2023-02-04T11:17:01.042Z,151.15
2023-02-04T11:19:37.984Z,156.48
2023-02-04T11:22:21.685Z,149.23
2023-02-04T11:24:50.430Z,147.70
2023-02-04T11:27:37.726Z,151.68
2023-02-04T11:30:23.507Z,160.02
2023-02-04T11:33:03.059Z,147.80
2023-02-04T11:35:33.909Z,141.35
2023-02-04T11:38:05.013Z,159.73
2023-02-04T11:41:02.656Z,153.98
2023-02-04T11:43:37.618Z,155.13
2023-02-04T11:46:41.274Z,156.57
2023-02-04T11:49:41.818Z,155.68
2023-02-04T11:52:57.506Z,144.82
2023-02-04T11:55:59.220Z,142.15
2023-02-04T11:58:43.899Z,138.82
2023-02-04T12:01:35.968Z,148.43
2023-02-04T12:04:08.842Z,141.35
2023-02-04T12:07:33.886Z,139.25
2023-02-04T12:15:10.911Z,136.23
2023-02-04T12:18:04.638Z,141.40
2023-02-04T12:24:16.334Z,138.05
2023-02-04T12:27:14.386Z,135.60
2023-02-04T12:29:42.207Z,135.70
2023-02-04T12:32:47.886Z,123.30
2023-02-04T12:39:35.009Z,129.27
2023-02-04T12:42:45.314Z,125.78
2023-02-04T12:50:08.201Z,129.25
2023-02-04T13:02:11.145Z,121.70
2023-02-04T13:04:47.744Z,113.55
2023-02-04T13:07:34.656Z,119.45
2023-02-04T13:10:04.802Z,116.40
2023-02-04T13:12:33.707Z,125.20
2023-02-04T13:15:07.475Z,110.18
2023-02-04T13:17:42.869Z,108.68
2023-02-04T13:20:11.330Z,114.40
2023-02-04T13:22:39.747Z,113.50
2023-02-04T13:25:07.573Z,114.07
2023-02-04T13:27:43.024Z,109.90
2023-02-04T13:30:18.812Z,107.78
2023-02-04T13:32:49.020Z,108.72
2023-02-04T13:35:19.630Z,112.55
2023-02-04T13:37:47.530Z,120.15
2023-02-04T13:40:24.420Z,113.00
2023-02-04T13:42:52.357Z,122.38
2023-02-04T13:45:22.346Z,134.70
2023-02-04T13:47:50.458Z,118.00
2023-02-04T13:50:18.284Z,119.70
2023-02-04T13:52:46.055Z,126.45
2023-02-04T13:55:13.753Z,128.10
2023-02-04T13:57:41.409Z,124.57
2023-02-04T14:00:10.440Z,131.32
2023-02-04T14:02:40.728Z,122.95
2023-02-04T14:05:08.413Z,124.07
2023-02-04T14:07:35.915Z,120.65
2023-02-04T14:10:04.056Z,122.70
2023-02-04T14:12:31.636Z,116.45
2023-02-04T14:14:59.579Z,125.97
2023-02-04T14:17:27.212Z,125.13
2023-02-04T14:19:54.817Z,122.50
2023-02-04T14:22:22.493Z,127.03
2023-02-04T14:24:50.503Z,125.22
2023-02-04T14:27:18.190Z,120.70
2023-02-04T14:29:45.871Z,121.80
2023-02-04T14:32:13.448Z,126.88
2023-02-04T14:34:41.132Z,129.93
2023-02-04T14:37:08.706Z,131.90
2023-02-04T14:39:36.288Z,129.10
2023-02-04T14:42:05.361Z,121.28
2023-02-04T14:44:33.126Z,126.15
2023-02-04T14:47:00.691Z,129.20
2023-02-04T14:49:28.248Z,130.25
2023-02-04T14:51:57.075Z,117.32
2023-02-04T14:54:24.757Z,127.97
2023-02-04T14:56:52.701Z,131.93
2023-02-04T14:59:22.086Z,139.55
2023-02-04T15:01:49.688Z,129.43
2023-02-04T15:04:18.629Z,130.43
2023-02-04T15:06:46.324Z,118.35
2023-02-04T15:09:13.950Z,128.18
2023-02-04T15:11:44.889Z,122.90
2023-02-04T15:14:12.554Z,131.00
2023-02-04T15:16:42.106Z,133.57
2023-02-04T15:19:13.170Z,110.90
2023-02-04T15:21:40.789Z,150.38
2023-02-04T15:24:10.700Z,137.98
2023-02-04T15:26:38.988Z,153.05
2023-02-04T15:29:07.002Z,147.15
2023-02-04T15:31:34.735Z,159.48
2023-02-04T15:34:03.439Z,162.25
2023-02-04T15:36:31.511Z,171.57
2023-02-04T15:38:59.203Z,166.25
2023-02-04T15:41:26.901Z,187.63
2023-02-04T15:43:54.908Z,164.80
2023-02-04T15:46:22.507Z,182.25
2023-02-04T15:48:50.135Z,181.00
2023-02-04T15:51:17.850Z,177.68
2023-02-04T15:53:45.754Z,177.13
2023-02-04T15:56:13.329Z,175.48
2023-02-04T15:58:41.037Z,189.85
2023-02-04T16:01:16.215Z,190.98
2023-02-04T16:03:51.719Z,204.48
2023-02-04T16:06:19.504Z,197.57
2023-02-04T16:08:47.131Z,194.77
2023-02-04T16:11:15.150Z,190.77
2023-02-04T16:13:42.772Z,182.65
2023-02-04T16:16:10.639Z,183.30
2023-02-04T16:18:38.301Z,186.80
2023-02-04T16:21:06.067Z,182.70
2023-02-04T16:23:37.152Z,185.25
2023-02-04T16:26:14.283Z,186.80
2023-02-04T16:31:36.496Z,175.80
2023-02-04T16:47:05.726Z,185.07
2023-02-04T16:49:33.893Z,182.88
2023-02-04T16:52:07.223Z,175.70
2023-02-04T16:54:42.422Z,195.40
2023-02-04T16:57:10.236Z,192.13
2023-02-04T16:59:40.723Z,187.32
2023-02-04T17:02:09.629Z,190.35
2023-02-04T17:04:42.198Z,195.13
2023-02-04T17:07:09.763Z,193.40
2023-02-04T17:09:38.415Z,203.77
2023-02-04T17:12:06.105Z,188.77
2023-02-04T17:14:33.548Z,205.27
2023-02-04T17:17:01.041Z,187.02
2023-02-04T17:19:29.344Z,181.38
2023-02-04T17:21:56.802Z,163.85
2023-02-04T17:24:27.586Z,149.48
2023-02-04T17:26:58.036Z,134.60
2023-02-04T17:29:25.755Z,115.85
2023-02-04T17:31:53.371Z,86.90
2023-02-04T17:34:21.707Z,86.65
2023-02-04T17:36:49.274Z,72.22
2023-02-04T17:39:16.843Z,49.03
2023-02-04T17:41:44.407Z,82.68
2023-02-04T17:44:17.058Z,67.90
2023-02-04T17:46:48.292Z,74.75
2023-02-04T17:49:16.140Z,69.35
2023-02-04T17:51:43.976Z,78.53
2023-02-04T17:54:14.968Z,77.45
2023-02-04T17:56:42.526Z,72.22
2023-02-04T17:59:11.802Z,68.78
2023-02-04T18:01:41.629Z,66.38
2023-02-04T18:04:14.285Z,58.15
2023-02-04T18:06:41.910Z,60.20
2023-02-04T18:09:18.768Z,66.20
2023-02-04T18:11:46.491Z,58.55
2023-02-04T18:14:41.006Z,57.70
2023-02-04T18:17:12.600Z,43.95
2023-02-04T18:19:42.009Z,60.53
2023-02-04T18:22:14.741Z,59.80
2023-02-04T18:24:46.365Z,63.90
2023-02-04T18:27:35.833Z,55.35
2023-02-04T18:30:19.206Z,63.78
2023-02-04T18:32:47.884Z,54.72
2023-02-04T18:35:44.071Z,56.47
2023-02-04T18:38:39.746Z,33.38
2023-02-04T18:41:32.734Z,46.20
2023-02-04T18:44:44.856Z,54.13
2023-02-04T18:47:35.956Z,45.30
2023-02-04T18:50:36.018Z,49.30
2023-02-04T18:53:12.652Z,45.22
2023-02-04T18:55:47.786Z,49.07
2023-02-04T18:58:35.444Z,43.05
2023-02-04T19:01:28.868Z,23.55
2023-02-04T19:04:03.580Z,43.75
2023-02-04T19:07:08.178Z,41.63
2023-02-04T19:09:37.560Z,36.65
2023-02-04T19:12:22.649Z,34.25
2023-02-04T19:14:53.118Z,35.55
2023-02-04T19:17:27.071Z,38.67
2023-02-04T19:20:27.054Z,38.80
2023-02-04T19:22:55.070Z,29.67
2023-02-04T19:25:29.079Z,39.47
2023-02-04T19:28:14.537Z,36.85
2023-02-04T19:30:51.079Z,39.58
2023-02-04T19:33:45.705Z,36.35
2023-02-04T19:36:30.543Z,38.03
2023-02-04T19:41:40.545Z,37.95
2023-02-04T19:44:39.359Z,37.67
2023-02-04T19:47:30.087Z,34.45
2023-02-04T19:50:09.631Z,36.25
2023-02-04T19:52:42.467Z,31.98
2023-02-04T19:55:19.105Z,30.73
2023-02-04T19:57:50.083Z,36.13
2023-02-04T20:00:36.291Z,29.90
2023-02-04T20:03:35.349Z,30.60
2023-02-04T20:06:09.710Z,32.13
2023-02-04T20:08:45.220Z,41.65
2023-02-04T20:11:18.638Z,29.90
2023-02-04T20:13:46.411Z,33.28
2023-02-04T20:16:41.582Z,35.17
2023-02-04T20:21:55.906Z,39.08
2023-02-04T20:24:23.463Z,33.17
2023-02-04T20:26:53.017Z,30.95
2023-02-04T20:29:26.930Z,30.13
2023-02-04T20:31:55.842Z,32.85
2023-02-04T20:34:24.224Z,31.27
2023-02-04T20:36:52.369Z,30.67
2023-02-04T20:39:39.867Z,31.92
2023-02-04T20:42:22.538Z,32.03
2023-02-04T20:44:50.468Z,54.20
2023-02-04T20:47:23.299Z,37.05
2023-02-04T20:49:59.533Z,35.05
2023-02-04T20:52:48.505Z,39.97
2023-02-04T20:55:31.519Z,36.00
2023-02-04T20:58:11.606Z,46.60
2023-02-04T21:00:40.355Z,42.85
2023-02-04T21:03:56.109Z,41.60
2023-02-04T21:06:43.260Z,38.88
2023-02-04T21:09:27.216Z,39.85
2023-02-04T21:11:59.503Z,38.10
2023-02-04T21:14:28.866Z,37.25
2023-02-04T21:17:01.769Z,43.58
2023-02-04T21:19:30.819Z,38.13
2023-02-04T21:21:59.058Z,39.08
2023-02-04T21:24:27.334Z,39.28
2023-02-04T21:26:55.135Z,35.25
2023-02-04T21:29:23.034Z,42.13
2023-02-04T21:31:50.987Z,35.90
2023-02-04T21:34:21.734Z,36.53
2023-02-04T21:36:49.426Z,38.28
2023-02-04T21:39:20.394Z,39.65
2023-02-04T21:41:48.146Z,43.70
2023-02-04T21:44:15.730Z,41.17
2023-02-04T21:46:43.529Z,42.85
2023-02-04T21:49:11.496Z,41.75
2023-02-04T21:51:39.016Z,40.53
2023-02-04T21:54:07.025Z,46.85
2023-02-04T21:56:38.051Z,34.60
2023-02-04T21:59:06.771Z,36.60
2023-02-04T22:01:36.003Z,39.55
2023-02-04T22:04:03.737Z,43.72
2023-02-04T22:06:32.112Z,38.50
2023-02-04T22:09:00.118Z,40.50
2023-02-04T22:11:27.750Z,36.53
2023-02-04T22:14:13.586Z,40.75
2023-02-04T22:16:41.402Z,37.28
2023-02-04T22:19:08.992Z,41.40
2023-02-04T22:21:37.462Z,39.28
2023-02-04T22:24:08.628Z,30.58
2023-02-04T22:26:36.649Z,32.83
2023-02-04T22:29:07.997Z,28.95
2023-02-04T22:32:21.676Z,22.90
2023-02-04T22:35:18.069Z,17.55
2023-02-04T22:37:45.759Z,23.67
2023-02-04T22:40:14.160Z,21.85
2023-02-04T22:42:41.760Z,23.45
2023-02-04T22:45:11.325Z,19.80
2023-02-04T22:47:49.660Z,25.52
2023-02-04T22:50:17.310Z,22.90
2023-02-04T22:52:45.061Z,19.30
2023-02-04T22:55:13.053Z,25.95
2023-02-04T22:57:58.915Z,17.13
2023-02-04T23:00:29.896Z,18.75
2023-02-04T23:03:00.869Z,23.40
2023-02-04T23:05:28.796Z,21.67
2023-02-04T23:07:56.511Z,20.15
2023-02-04T23:10:39.504Z,28.30
2023-02-04T23:13:22.606Z,17.35
2023-02-04T23:15:56.228Z,21.05
2023-02-04T23:18:23.878Z,14.43
2023-02-04T23:20:51.578Z,17.83
2023-02-04T23:23:19.401Z,16.92
2023-02-04T23:25:48.822Z,23.27
2023-02-04T23:28:17.228Z,14.00
2023-02-04T23:30:45.242Z,23.38
2023-02-04T23:33:12.843Z,22.77
2023-02-04T23:35:40.424Z,20.20
2023-02-04T23:38:10.825Z,22.33
2023-02-04T23:40:38.457Z,17.80
2023-02-04T23:43:06.830Z,12.48
2023-02-04T23:45:35.317Z,13.77
2023-02-04T23:48:06.495Z,14.25
2023-02-04T23:50:35.239Z,14.30
2023-02-04T23:53:03.316Z,16.08
2023-02-04T23:55:30.954Z,16.48
2023-02-04T23:58:05.329Z,13.55
